sensor_id;sensor_type;location;lat;lon;timestamp;temperature;humidity
22974;DHT22;11653;50.848;4.584;2023-07-13T00:00:00;17.60;99.90
22974;DHT22;11653;50.848;4.584;2023-07-13T00:02:26;17.60;99.90
22974;DHT22;11653;50.848;4.584;2023-07-13T00:04:52;17.60;99.90
22974;DHT22;11653;50.848;4.584;2023-07-13T00:07:17;17.60;99.90
22974;DHT22;11653;50.848;4.584;2023-07-13T00:09:46;17.70;99.90
22974;DHT22;11653;50.848;4.584;2023-07-13T00:14:53;17.70;99.90
22974;DHT22;11653;50.848;4.584;2023-07-13T00:17:18;17.60;99.90
22974;DHT22;11653;50.848;4.584;2023-07-13T00:19:44;17.60;99.90
22974;DHT22;11653;50.848;4.584;2023-07-13T00:22:11;17.50;99.90
22974;DHT22;11653;50.848;4.584;2023-07-13T00:24:37;17.50;99.90
22974;DHT22;11653;50.848;4.584;2023-07-13T00:27:10;17.40;99.90
22974;DHT22;11653;50.848;4.584;2023-07-13T00:29:36;17.50;99.90
22974;DHT22;11653;50.848;4.584;2023-07-13T00:32:06;17.40;99.90
22974;DHT22;11653;50.848;4.584;2023-07-13T00:34:32;17.50;99.90
22974;DHT22;11653;50.848;4.584;2023-07-13T00:36:58;17.50;99.90
22974;DHT22;11653;50.848;4.584;2023-07-13T00:39:24;17.50;99.90
22974;DHT22;11653;50.848;4.584;2023-07-13T00:41:50;17.50;99.90
22974;DHT22;11653;50.848;4.584;2023-07-13T00:44:18;17.40;99.90
22974;DHT22;11653;50.848;4.584;2023-07-13T00:46:44;17.40;99.90
22974;DHT22;11653;50.848;4.584;2023-07-13T00:49:13;17.30;99.90
22974;DHT22;11653;50.848;4.584;2023-07-13T00:51:56;17.30;99.90
22974;DHT22;11653;50.848;4.584;2023-07-13T00:54:41;17.30;99.90
22974;DHT22;11653;50.848;4.584;2023-07-13T00:57:10;17.30;99.90
22974;DHT22;11653;50.848;4.584;2023-07-13T00:59:38;17.20;99.90
22974;DHT22;11653;50.848;4.584;2023-07-13T01:02:05;17.20;99.90
22974;DHT22;11653;50.848;4.584;2023-07-13T01:04:30;17.20;99.90
22974;DHT22;11653;50.848;4.584;2023-07-13T01:06:57;17.20;99.90
22974;DHT22;11653;50.848;4.584;2023-07-13T01:09:23;17.30;99.90
22974;DHT22;11653;50.848;4.584;2023-07-13T01:11:49;17.20;99.90
22974;DHT22;11653;50.848;4.584;2023-07-13T01:14:15;17.10;99.90
22974;DHT22;11653;50.848;4.584;2023-07-13T01:16:43;17.10;99.90
22974;DHT22;11653;50.848;4.584;2023-07-13T01:19:26;17.00;99.90
22974;DHT22;11653;50.848;4.584;2023-07-13T01:22:04;17.00;99.90
22974;DHT22;11653;50.848;4.584;2023-07-13T01:24:37;16.90;99.90
22974;DHT22;11653;50.848;4.584;2023-07-13T01:27:03;16.90;99.90
22974;DHT22;11653;50.848;4.584;2023-07-13T01:29:30;16.90;99.90
22974;DHT22;11653;50.848;4.584;2023-07-13T01:31:56;16.90;99.90
22974;DHT22;11653;50.848;4.584;2023-07-13T01:34:22;16.80;99.90
22974;DHT22;11653;50.848;4.584;2023-07-13T01:36:47;16.80;99.90
22974;DHT22;11653;50.848;4.584;2023-07-13T01:39:13;16.80;99.90
22974;DHT22;11653;50.848;4.584;2023-07-13T01:41:40;16.80;99.90
22974;DHT22;11653;50.848;4.584;2023-07-13T01:44:05;16.80;99.90
22974;DHT22;11653;50.848;4.584;2023-07-13T01:46:31;16.80;99.90
22974;DHT22;11653;50.848;4.584;2023-07-13T01:48:57;16.70;99.90
22974;DHT22;11653;50.848;4.584;2023-07-13T01:51:22;16.70;99.90
22974;DHT22;11653;50.848;4.584;2023-07-13T01:53:48;16.70;99.90
22974;DHT22;11653;50.848;4.584;2023-07-13T01:56:15;16.70;99.90
22974;DHT22;11653;50.848;4.584;2023-07-13T01:58:41;16.70;99.90
22974;DHT22;11653;50.848;4.584;2023-07-13T02:01:06;16.60;99.90
22974;DHT22;11653;50.848;4.584;2023-07-13T02:03:32;16.70;99.90
22974;DHT22;11653;50.848;4.584;2023-07-13T02:05:57;16.60;99.90
22974;DHT22;11653;50.848;4.584;2023-07-13T02:08:23;16.60;99.90
22974;DHT22;11653;50.848;4.584;2023-07-13T02:10:49;16.60;99.90
22974;DHT22;11653;50.848;4.584;2023-07-13T02:13:14;16.50;99.90
22974;DHT22;11653;50.848;4.584;2023-07-13T02:15:40;16.50;99.90
22974;DHT22;11653;50.848;4.584;2023-07-13T02:18:08;16.40;99.90
22974;DHT22;11653;50.848;4.584;2023-07-13T02:20:34;16.40;99.90
22974;DHT22;11653;50.848;4.584;2023-07-13T02:22:59;16.40;99.90
22974;DHT22;11653;50.848;4.584;2023-07-13T02:25:25;16.30;99.90
22974;DHT22;11653;50.848;4.584;2023-07-13T02:27:52;16.40;99.90
22974;DHT22;11653;50.848;4.584;2023-07-13T02:30:18;16.30;99.90
22974;DHT22;11653;50.848;4.584;2023-07-13T02:32:43;16.20;99.90
22974;DHT22;11653;50.848;4.584;2023-07-13T02:35:10;16.20;99.90
22974;DHT22;11653;50.848;4.584;2023-07-13T02:37:36;16.20;99.90
22974;DHT22;11653;50.848;4.584;2023-07-13T02:40:02;16.20;99.90
22974;DHT22;11653;50.848;4.584;2023-07-13T02:42:34;16.20;99.90
22974;DHT22;11653;50.848;4.584;2023-07-13T02:44:59;16.20;99.90
22974;DHT22;11653;50.848;4.584;2023-07-13T02:47:25;16.10;99.90
22974;DHT22;11653;50.848;4.584;2023-07-13T02:49:52;16.10;99.90
22974;DHT22;11653;50.848;4.584;2023-07-13T02:52:18;16.10;99.90
22974;DHT22;11653;50.848;4.584;2023-07-13T02:54:43;16.10;99.90
22974;DHT22;11653;50.848;4.584;2023-07-13T02:57:09;16.10;99.90
22974;DHT22;11653;50.848;4.584;2023-07-13T02:59:34;16.20;99.90
22974;DHT22;11653;50.848;4.584;2023-07-13T03:02:02;16.10;99.90
22974;DHT22;11653;50.848;4.584;2023-07-13T03:04:27;16.00;99.90
22974;DHT22;11653;50.848;4.584;2023-07-13T03:06:53;16.00;99.90
22974;DHT22;11653;50.848;4.584;2023-07-13T03:09:24;15.90;99.90
22974;DHT22;11653;50.848;4.584;2023-07-13T03:11:53;15.90;99.90
22974;DHT22;11653;50.848;4.584;2023-07-13T03:14:22;15.80;99.90
22974;DHT22;11653;50.848;4.584;2023-07-13T03:16:48;15.80;99.90
22974;DHT22;11653;50.848;4.584;2023-07-13T03:19:13;15.70;99.90
22974;DHT22;11653;50.848;4.584;2023-07-13T03:21:39;15.80;99.90
22974;DHT22;11653;50.848;4.584;2023-07-13T03:24:05;15.80;99.90
22974;DHT22;11653;50.848;4.584;2023-07-13T03:26:31;15.80;99.90
22974;DHT22;11653;50.848;4.584;2023-07-13T03:28:57;15.80;99.90
22974;DHT22;11653;50.848;4.584;2023-07-13T03:31:26;15.80;99.90
22974;DHT22;11653;50.848;4.584;2023-07-13T03:33:54;15.80;99.90
22974;DHT22;11653;50.848;4.584;2023-07-13T03:36:25;15.80;99.90
22974;DHT22;11653;50.848;4.584;2023-07-13T03:38:57;15.90;99.90
22974;DHT22;11653;50.848;4.584;2023-07-13T03:41:24;15.90;99.90
22974;DHT22;11653;50.848;4.584;2023-07-13T03:43:50;15.90;99.90
22974;DHT22;11653;50.848;4.584;2023-07-13T03:46:16;15.90;99.90
22974;DHT22;11653;50.848;4.584;2023-07-13T03:48:44;15.90;99.90
22974;DHT22;11653;50.848;4.584;2023-07-13T03:51:12;15.90;99.90
22974;DHT22;11653;50.848;4.584;2023-07-13T03:53:41;16.00;99.90
22974;DHT22;11653;50.848;4.584;2023-07-13T03:56:07;16.00;99.90
22974;DHT22;11653;50.848;4.584;2023-07-13T03:58:36;16.10;99.90
22974;DHT22;11653;50.848;4.584;2023-07-13T04:01:03;16.10;99.90
22974;DHT22;11653;50.848;4.584;2023-07-13T04:03:31;16.20;99.90
22974;DHT22;11653;50.848;4.584;2023-07-13T04:05:59;16.20;99.90
22974;DHT22;11653;50.848;4.584;2023-07-13T04:08:30;16.20;99.90
22974;DHT22;11653;50.848;4.584;2023-07-13T04:10:57;16.40;99.90
22974;DHT22;11653;50.848;4.584;2023-07-13T04:13:24;16.40;99.90
22974;DHT22;11653;50.848;4.584;2023-07-13T04:15:50;16.50;99.90
22974;DHT22;11653;50.848;4.584;2023-07-13T04:18:16;16.60;99.90
22974;DHT22;11653;50.848;4.584;2023-07-13T04:20:42;16.70;99.90
22974;DHT22;11653;50.848;4.584;2023-07-13T04:23:07;16.80;99.90
22974;DHT22;11653;50.848;4.584;2023-07-13T04:25:33;16.80;99.90
22974;DHT22;11653;50.848;4.584;2023-07-13T04:27:59;16.80;99.90
22974;DHT22;11653;50.848;4.584;2023-07-13T04:30:24;16.80;99.90
22974;DHT22;11653;50.848;4.584;2023-07-13T04:32:51;16.90;99.90
22974;DHT22;11653;50.848;4.584;2023-07-13T04:35:19;17.00;99.90
22974;DHT22;11653;50.848;4.584;2023-07-13T04:37:47;16.90;99.90
22974;DHT22;11653;50.848;4.584;2023-07-13T04:40:14;16.90;99.90
22974;DHT22;11653;50.848;4.584;2023-07-13T04:42:39;16.90;99.90
22974;DHT22;11653;50.848;4.584;2023-07-13T04:45:06;17.00;99.90
22974;DHT22;11653;50.848;4.584;2023-07-13T04:47:32;17.00;99.90
22974;DHT22;11653;50.848;4.584;2023-07-13T04:49:58;17.10;99.90
22974;DHT22;11653;50.848;4.584;2023-07-13T04:52:24;17.20;99.90
22974;DHT22;11653;50.848;4.584;2023-07-13T04:54:50;17.20;99.90
22974;DHT22;11653;50.848;4.584;2023-07-13T04:57:16;17.30;99.90
22974;DHT22;11653;50.848;4.584;2023-07-13T04:59:42;17.40;99.90
22974;DHT22;11653;50.848;4.584;2023-07-13T05:02:08;17.60;99.90
22974;DHT22;11653;50.848;4.584;2023-07-13T05:04:33;17.60;99.90
22974;DHT22;11653;50.848;4.584;2023-07-13T05:06:59;17.70;99.90
22974;DHT22;11653;50.848;4.584;2023-07-13T05:09:25;17.90;99.90
22974;DHT22;11653;50.848;4.584;2023-07-13T05:11:50;17.80;99.90
22974;DHT22;11653;50.848;4.584;2023-07-13T05:14:16;17.80;99.90
22974;DHT22;11653;50.848;4.584;2023-07-13T05:16:42;17.80;99.90
22974;DHT22;11653;50.848;4.584;2023-07-13T05:19:08;17.90;99.90
22974;DHT22;11653;50.848;4.584;2023-07-13T05:21:34;18.00;99.90
22974;DHT22;11653;50.848;4.584;2023-07-13T05:24:00;18.10;99.90
22974;DHT22;11653;50.848;4.584;2023-07-13T05:26:25;18.10;99.90
22974;DHT22;11653;50.848;4.584;2023-07-13T05:28:51;18.00;99.90
22974;DHT22;11653;50.848;4.584;2023-07-13T05:31:17;18.00;99.90
22974;DHT22;11653;50.848;4.584;2023-07-13T05:33:42;18.20;99.90
22974;DHT22;11653;50.848;4.584;2023-07-13T05:36:08;18.10;99.90
22974;DHT22;11653;50.848;4.584;2023-07-13T05:38:34;18.20;99.90
22974;DHT22;11653;50.848;4.584;2023-07-13T05:41:00;18.30;99.90
22974;DHT22;11653;50.848;4.584;2023-07-13T05:43:26;18.40;99.90
22974;DHT22;11653;50.848;4.584;2023-07-13T05:45:56;18.60;99.90
22974;DHT22;11653;50.848;4.584;2023-07-13T05:48:21;18.60;99.90
22974;DHT22;11653;50.848;4.584;2023-07-13T05:50:47;18.60;99.90
22974;DHT22;11653;50.848;4.584;2023-07-13T05:53:13;18.60;99.90
22974;DHT22;11653;50.848;4.584;2023-07-13T05:55:46;18.70;99.90
22974;DHT22;11653;50.848;4.584;2023-07-13T05:58:13;18.70;99.90
22974;DHT22;11653;50.848;4.584;2023-07-13T06:00:39;18.70;99.90
22974;DHT22;11653;50.848;4.584;2023-07-13T06:03:06;18.80;99.90
22974;DHT22;11653;50.848;4.584;2023-07-13T06:05:33;18.80;99.90
22974;DHT22;11653;50.848;4.584;2023-07-13T06:08:00;18.70;99.90
22974;DHT22;11653;50.848;4.584;2023-07-13T06:10:25;18.70;99.90
22974;DHT22;11653;50.848;4.584;2023-07-13T06:12:51;18.70;99.90
22974;DHT22;11653;50.848;4.584;2023-07-13T06:15:17;18.80;99.90
22974;DHT22;11653;50.848;4.584;2023-07-13T06:17:43;18.80;99.90
22974;DHT22;11653;50.848;4.584;2023-07-13T06:20:09;18.90;99.90
22974;DHT22;11653;50.848;4.584;2023-07-13T06:22:35;18.90;99.90
22974;DHT22;11653;50.848;4.584;2023-07-13T06:25:01;18.90;99.90
22974;DHT22;11653;50.848;4.584;2023-07-13T06:27:27;18.90;99.90
22974;DHT22;11653;50.848;4.584;2023-07-13T06:29:52;18.90;99.90
22974;DHT22;11653;50.848;4.584;2023-07-13T06:32:18;18.90;99.90
22974;DHT22;11653;50.848;4.584;2023-07-13T06:34:43;18.90;99.90
22974;DHT22;11653;50.848;4.584;2023-07-13T06:37:09;19.00;99.90
22974;DHT22;11653;50.848;4.584;2023-07-13T06:39:35;19.10;99.90
22974;DHT22;11653;50.848;4.584;2023-07-13T06:42:01;19.20;99.90
22974;DHT22;11653;50.848;4.584;2023-07-13T06:44:27;19.20;99.90
22974;DHT22;11653;50.848;4.584;2023-07-13T06:46:53;19.20;99.90
22974;DHT22;11653;50.848;4.584;2023-07-13T06:49:18;19.20;99.90
22974;DHT22;11653;50.848;4.584;2023-07-13T06:51:44;19.20;99.90
22974;DHT22;11653;50.848;4.584;2023-07-13T06:54:10;19.30;99.90
22974;DHT22;11653;50.848;4.584;2023-07-13T06:56:35;19.30;99.90
22974;DHT22;11653;50.848;4.584;2023-07-13T06:59:01;19.40;99.90
22974;DHT22;11653;50.848;4.584;2023-07-13T07:01:26;19.50;99.90
22974;DHT22;11653;50.848;4.584;2023-07-13T07:03:52;19.50;99.90
22974;DHT22;11653;50.848;4.584;2023-07-13T07:06:20;19.60;99.90
22974;DHT22;11653;50.848;4.584;2023-07-13T07:08:49;19.70;99.90
22974;DHT22;11653;50.848;4.584;2023-07-13T07:11:18;19.70;99.90
22974;DHT22;11653;50.848;4.584;2023-07-13T07:13:44;19.80;99.90
22974;DHT22;11653;50.848;4.584;2023-07-13T07:16:10;19.80;99.90
22974;DHT22;11653;50.848;4.584;2023-07-13T07:18:36;19.90;99.90
22974;DHT22;11653;50.848;4.584;2023-07-13T07:21:02;20.00;99.90
22974;DHT22;11653;50.848;4.584;2023-07-13T07:23:28;20.10;99.90
22974;DHT22;11653;50.848;4.584;2023-07-13T07:25:53;20.20;99.90
22974;DHT22;11653;50.848;4.584;2023-07-13T07:28:19;20.30;99.90
22974;DHT22;11653;50.848;4.584;2023-07-13T07:30:46;20.30;99.90
22974;DHT22;11653;50.848;4.584;2023-07-13T07:33:12;20.40;99.90
22974;DHT22;11653;50.848;4.584;2023-07-13T07:35:38;20.40;99.90
22974;DHT22;11653;50.848;4.584;2023-07-13T07:38:04;20.50;99.90
22974;DHT22;11653;50.848;4.584;2023-07-13T07:40:30;20.70;99.90
22974;DHT22;11653;50.848;4.584;2023-07-13T07:42:57;20.80;99.90
22974;DHT22;11653;50.848;4.584;2023-07-13T07:45:23;20.80;99.90
22974;DHT22;11653;50.848;4.584;2023-07-13T07:47:49;20.80;99.90
22974;DHT22;11653;50.848;4.584;2023-07-13T07:50:14;20.90;99.90
22974;DHT22;11653;50.848;4.584;2023-07-13T07:52:40;21.10;99.90
22974;DHT22;11653;50.848;4.584;2023-07-13T07:55:07;21.50;99.90
22974;DHT22;11653;50.848;4.584;2023-07-13T07:57:33;21.70;99.90
22974;DHT22;11653;50.848;4.584;2023-07-13T07:59:59;21.60;99.90
22974;DHT22;11653;50.848;4.584;2023-07-13T08:02:25;21.30;99.90
22974;DHT22;11653;50.848;4.584;2023-07-13T08:04:52;21.20;99.90
22974;DHT22;11653;50.848;4.584;2023-07-13T08:07:18;21.40;99.90
22974;DHT22;11653;50.848;4.584;2023-07-13T08:09:43;21.80;99.90
22974;DHT22;11653;50.848;4.584;2023-07-13T08:12:09;22.20;99.90
22974;DHT22;11653;50.848;4.584;2023-07-13T08:14:35;22.40;99.90
22974;DHT22;11653;50.848;4.584;2023-07-13T08:17:01;22.60;99.90
22974;DHT22;11653;50.848;4.584;2023-07-13T08:19:27;23.10;99.90
22974;DHT22;11653;50.848;4.584;2023-07-13T08:21:53;23.80;99.90
22974;DHT22;11653;50.848;4.584;2023-07-13T08:24:18;24.60;99.90
22974;DHT22;11653;50.848;4.584;2023-07-13T08:26:46;25.30;99.90
22974;DHT22;11653;50.848;4.584;2023-07-13T08:29:12;26.00;99.90
22974;DHT22;11653;50.848;4.584;2023-07-13T08:31:38;26.90;99.90
22974;DHT22;11653;50.848;4.584;2023-07-13T08:34:03;27.60;98.20
22974;DHT22;11653;50.848;4.584;2023-07-13T08:36:29;27.20;97.50
22974;DHT22;11653;50.848;4.584;2023-07-13T08:38:55;27.20;97.90
22974;DHT22;11653;50.848;4.584;2023-07-13T08:41:21;27.30;97.20
22974;DHT22;11653;50.848;4.584;2023-07-13T08:43:50;27.20;97.30
22974;DHT22;11653;50.848;4.584;2023-07-13T08:49:31;26.40;96.90
22974;DHT22;11653;50.848;4.584;2023-07-13T08:51:56;26.00;97.80
22974;DHT22;11653;50.848;4.584;2023-07-13T08:54:35;25.50;99.00
22974;DHT22;11653;50.848;4.584;2023-07-13T08:57:10;24.80;99.90
22974;DHT22;11653;50.848;4.584;2023-07-13T08:59:37;24.00;99.90
22974;DHT22;11653;50.848;4.584;2023-07-13T09:02:32;23.80;99.90
22974;DHT22;11653;50.848;4.584;2023-07-13T09:05:02;23.90;99.90
22974;DHT22;11653;50.848;4.584;2023-07-13T09:10:23;26.30;99.90
22974;DHT22;11653;50.848;4.584;2023-07-13T09:15:45;28.60;92.30
22974;DHT22;11653;50.848;4.584;2023-07-13T09:21:00;27.90;91.10
22974;DHT22;11653;50.848;4.584;2023-07-13T09:23:30;26.80;93.60
22974;DHT22;11653;50.848;4.584;2023-07-13T09:26:06;26.50;96.90
22974;DHT22;11653;50.848;4.584;2023-07-13T09:28:42;26.70;94.50
22974;DHT22;11653;50.848;4.584;2023-07-13T09:31:21;27.40;93.40
22974;DHT22;11653;50.848;4.584;2023-07-13T09:33:49;27.60;92.80
22974;DHT22;11653;50.848;4.584;2023-07-13T09:36:23;27.70;93.50
22974;DHT22;11653;50.848;4.584;2023-07-13T09:46:27;27.10;93.20
22974;DHT22;11653;50.848;4.584;2023-07-13T09:48:52;27.00;93.40
22974;DHT22;11653;50.848;4.584;2023-07-13T09:51:18;27.20;93.20
22974;DHT22;11653;50.848;4.584;2023-07-13T09:53:44;27.20;92.30
22974;DHT22;11653;50.848;4.584;2023-07-13T09:56:39;27.10;92.70
22974;DHT22;11653;50.848;4.584;2023-07-13T09:59:19;27.60;91.90
22974;DHT22;11653;50.848;4.584;2023-07-13T10:01:45;28.10;90.40
22974;DHT22;11653;50.848;4.584;2023-07-13T10:04:12;28.20;90.80
22974;DHT22;11653;50.848;4.584;2023-07-13T10:06:39;28.30;91.30
22974;DHT22;11653;50.848;4.584;2023-07-13T10:09:09;28.50;90.20
22974;DHT22;11653;50.848;4.584;2023-07-13T10:11:36;29.10;88.50
22974;DHT22;11653;50.848;4.584;2023-07-13T10:14:17;29.90;86.30
22974;DHT22;11653;50.848;4.584;2023-07-13T10:16:45;30.00;83.80
22974;DHT22;11653;50.848;4.584;2023-07-13T10:19:24;29.30;80.90
22974;DHT22;11653;50.848;4.584;2023-07-13T10:21:56;27.90;86.90
22974;DHT22;11653;50.848;4.584;2023-07-13T10:24:24;26.50;91.10
22974;DHT22;11653;50.848;4.584;2023-07-13T10:29:59;25.80;95.90
22974;DHT22;11653;50.848;4.584;2023-07-13T10:32:25;26.20;93.80
22974;DHT22;11653;50.848;4.584;2023-07-13T10:34:51;26.40;93.40
22974;DHT22;11653;50.848;4.584;2023-07-13T10:37:41;26.50;94.50
22974;DHT22;11653;50.848;4.584;2023-07-13T10:40:14;27.20;92.60
22974;DHT22;11653;50.848;4.584;2023-07-13T10:42:44;27.90;89.50
22974;DHT22;11653;50.848;4.584;2023-07-13T10:45:17;28.20;89.50
22974;DHT22;11653;50.848;4.584;2023-07-13T10:47:44;28.70;86.40
22974;DHT22;11653;50.848;4.584;2023-07-13T10:50:18;28.50;89.00
22974;DHT22;11653;50.848;4.584;2023-07-13T10:58:20;29.40;82.70
22974;DHT22;11653;50.848;4.584;2023-07-13T11:00:50;29.40;79.60
22974;DHT22;11653;50.848;4.584;2023-07-13T11:03:18;28.70;80.80
22974;DHT22;11653;50.848;4.584;2023-07-13T11:05:48;27.90;82.50
22974;DHT22;11653;50.848;4.584;2023-07-13T11:08:34;27.50;86.30
22974;DHT22;11653;50.848;4.584;2023-07-13T11:11:03;27.10;87.90
22974;DHT22;11653;50.848;4.584;2023-07-13T11:13:59;27.20;87.00
22974;DHT22;11653;50.848;4.584;2023-07-13T11:16:46;26.80;87.60
22974;DHT22;11653;50.848;4.584;2023-07-13T11:27:41;25.80;91.70
22974;DHT22;11653;50.848;4.584;2023-07-13T11:33:22;27.10;90.30
22974;DHT22;11653;50.848;4.584;2023-07-13T11:36:12;27.20;87.40
22974;DHT22;11653;50.848;4.584;2023-07-13T11:38:40;27.20;86.40
22974;DHT22;11653;50.848;4.584;2023-07-13T11:41:18;27.30;85.70
22974;DHT22;11653;50.848;4.584;2023-07-13T11:43:45;28.00;86.00
22974;DHT22;11653;50.848;4.584;2023-07-13T11:48:40;30.00;80.40
22974;DHT22;11653;50.848;4.584;2023-07-13T11:51:25;30.80;77.70
22974;DHT22;11653;50.848;4.584;2023-07-13T11:53:54;31.10;72.50
22974;DHT22;11653;50.848;4.584;2023-07-13T11:56:20;30.60;73.20
22974;DHT22;11653;50.848;4.584;2023-07-13T11:58:53;29.70;72.70
22974;DHT22;11653;50.848;4.584;2023-07-13T12:01:24;28.70;75.20
22974;DHT22;11653;50.848;4.584;2023-07-13T12:03:52;27.70;80.00
22974;DHT22;11653;50.848;4.584;2023-07-13T12:08:57;26.90;85.70
22974;DHT22;11653;50.848;4.584;2023-07-13T12:11:23;26.30;87.90
22974;DHT22;11653;50.848;4.584;2023-07-13T12:13:49;25.70;90.00
22974;DHT22;11653;50.848;4.584;2023-07-13T12:16:36;25.40;90.30
22974;DHT22;11653;50.848;4.584;2023-07-13T12:19:03;25.10;90.90
22974;DHT22;11653;50.848;4.584;2023-07-13T12:21:36;24.80;90.30
22974;DHT22;11653;50.848;4.584;2023-07-13T12:24:03;24.60;91.70
22974;DHT22;11653;50.848;4.584;2023-07-13T12:26:30;24.40;91.70
22974;DHT22;11653;50.848;4.584;2023-07-13T12:28:59;24.40;92.00
22974;DHT22;11653;50.848;4.584;2023-07-13T12:31:31;24.40;92.80
22974;DHT22;11653;50.848;4.584;2023-07-13T12:34:00;24.50;93.10
22974;DHT22;11653;50.848;4.584;2023-07-13T12:36:29;24.20;92.90
22974;DHT22;11653;50.848;4.584;2023-07-13T12:39:04;24.10;94.30
22974;DHT22;11653;50.848;4.584;2023-07-13T12:41:33;23.90;94.50
22974;DHT22;11653;50.848;4.584;2023-07-13T12:43:59;23.80;93.90
22974;DHT22;11653;50.848;4.584;2023-07-13T12:46:26;23.70;94.90
22974;DHT22;11653;50.848;4.584;2023-07-13T12:48:54;23.70;95.90
22974;DHT22;11653;50.848;4.584;2023-07-13T12:51:27;23.60;95.90
22974;DHT22;11653;50.848;4.584;2023-07-13T12:54:16;23.50;95.00
22974;DHT22;11653;50.848;4.584;2023-07-13T12:56:43;23.10;95.60
22974;DHT22;11653;50.848;4.584;2023-07-13T12:59:17;22.70;96.40
22974;DHT22;11653;50.848;4.584;2023-07-13T13:01:43;22.40;98.90
22974;DHT22;11653;50.848;4.584;2023-07-13T13:04:09;22.10;99.90
22974;DHT22;11653;50.848;4.584;2023-07-13T13:06:36;21.90;99.90
22974;DHT22;11653;50.848;4.584;2023-07-13T13:09:05;21.80;99.90
22974;DHT22;11653;50.848;4.584;2023-07-13T13:11:34;21.60;99.90
22974;DHT22;11653;50.848;4.584;2023-07-13T13:14:00;21.70;99.90
22974;DHT22;11653;50.848;4.584;2023-07-13T13:18:54;21.40;99.90
22974;DHT22;11653;50.848;4.584;2023-07-13T13:21:25;21.20;99.90
22974;DHT22;11653;50.848;4.584;2023-07-13T13:23:52;21.20;99.90
22974;DHT22;11653;50.848;4.584;2023-07-13T13:26:20;21.20;99.90
22974;DHT22;11653;50.848;4.584;2023-07-13T13:28:46;21.20;99.90
22974;DHT22;11653;50.848;4.584;2023-07-13T13:31:13;21.30;99.90
22974;DHT22;11653;50.848;4.584;2023-07-13T13:33:41;21.50;99.90
22974;DHT22;11653;50.848;4.584;2023-07-13T13:36:22;21.70;99.90
22974;DHT22;11653;50.848;4.584;2023-07-13T13:38:49;22.20;99.90
22974;DHT22;11653;50.848;4.584;2023-07-13T13:41:15;22.60;99.90
22974;DHT22;11653;50.848;4.584;2023-07-13T13:43:42;22.90;99.90
22974;DHT22;11653;50.848;4.584;2023-07-13T13:46:24;23.20;99.90
22974;DHT22;11653;50.848;4.584;2023-07-13T13:48:51;23.40;99.90
22974;DHT22;11653;50.848;4.584;2023-07-13T13:51:21;23.60;99.90
22974;DHT22;11653;50.848;4.584;2023-07-13T13:53:48;23.70;99.90
22974;DHT22;11653;50.848;4.584;2023-07-13T13:56:15;23.80;99.90
22974;DHT22;11653;50.848;4.584;2023-07-13T13:58:41;23.80;99.90
22974;DHT22;11653;50.848;4.584;2023-07-13T14:01:17;23.80;99.90
22974;DHT22;11653;50.848;4.584;2023-07-13T14:03:43;23.90;99.90
22974;DHT22;11653;50.848;4.584;2023-07-13T14:06:12;23.90;99.90
22974;DHT22;11653;50.848;4.584;2023-07-13T14:08:38;23.90;99.90
22974;DHT22;11653;50.848;4.584;2023-07-13T14:11:04;24.00;99.90
22974;DHT22;11653;50.848;4.584;2023-07-13T14:13:37;24.10;99.90
22974;DHT22;11653;50.848;4.584;2023-07-13T14:16:15;24.30;99.90
22974;DHT22;11653;50.848;4.584;2023-07-13T14:18:43;24.50;99.90
22974;DHT22;11653;50.848;4.584;2023-07-13T14:21:29;24.70;99.90
22974;DHT22;11653;50.848;4.584;2023-07-13T14:23:54;24.90;99.90
22974;DHT22;11653;50.848;4.584;2023-07-13T14:26:23;24.90;99.90
22974;DHT22;11653;50.848;4.584;2023-07-13T14:28:52;25.00;99.90
22974;DHT22;11653;50.848;4.584;2023-07-13T14:31:20;24.90;99.90
22974;DHT22;11653;50.848;4.584;2023-07-13T14:33:46;24.80;99.90
22974;DHT22;11653;50.848;4.584;2023-07-13T14:36:29;24.80;99.90
22974;DHT22;11653;50.848;4.584;2023-07-13T14:39:04;24.60;99.90
22974;DHT22;11653;50.848;4.584;2023-07-13T14:41:34;24.50;99.90
22974;DHT22;11653;50.848;4.584;2023-07-13T14:43:59;24.60;99.90
22974;DHT22;11653;50.848;4.584;2023-07-13T14:46:31;24.40;99.90
22974;DHT22;11653;50.848;4.584;2023-07-13T14:49:18;24.50;99.90
22974;DHT22;11653;50.848;4.584;2023-07-13T14:51:46;24.30;99.90
22974;DHT22;11653;50.848;4.584;2023-07-13T14:54:12;24.00;99.90
22974;DHT22;11653;50.848;4.584;2023-07-13T14:56:37;23.90;99.90
22974;DHT22;11653;50.848;4.584;2023-07-13T14:59:03;23.80;99.90
22974;DHT22;11653;50.848;4.584;2023-07-13T15:01:30;23.80;99.90
22974;DHT22;11653;50.848;4.584;2023-07-13T15:03:58;23.70;99.90
22974;DHT22;11653;50.848;4.584;2023-07-13T15:06:24;23.60;99.90
22974;DHT22;11653;50.848;4.584;2023-07-13T15:08:49;23.70;99.90
22974;DHT22;11653;50.848;4.584;2023-07-13T15:11:16;23.80;99.90
22974;DHT22;11653;50.848;4.584;2023-07-13T15:13:42;24.10;99.90
22974;DHT22;11653;50.848;4.584;2023-07-13T15:16:23;24.40;99.90
22974;DHT22;11653;50.848;4.584;2023-07-13T15:18:50;24.60;99.90
22974;DHT22;11653;50.848;4.584;2023-07-13T15:21:23;24.70;99.20
22974;DHT22;11653;50.848;4.584;2023-07-13T15:23:49;24.80;98.40
22974;DHT22;11653;50.848;4.584;2023-07-13T15:26:17;24.90;99.10
22974;DHT22;11653;50.848;4.584;2023-07-13T15:28:44;25.10;98.30
22974;DHT22;11653;50.848;4.584;2023-07-13T15:31:36;25.10;97.50
22974;DHT22;11653;50.848;4.584;2023-07-13T15:34:11;25.30;98.40
22974;DHT22;11653;50.848;4.584;2023-07-13T15:36:37;25.40;98.70
22974;DHT22;11653;50.848;4.584;2023-07-13T15:39:03;25.40;98.20
22974;DHT22;11653;50.848;4.584;2023-07-13T15:41:29;25.60;98.50
22974;DHT22;11653;50.848;4.584;2023-07-13T15:43:57;25.80;97.70
22974;DHT22;11653;50.848;4.584;2023-07-13T15:46:24;26.10;96.80
22974;DHT22;11653;50.848;4.584;2023-07-13T15:48:50;26.30;96.10
22974;DHT22;11653;50.848;4.584;2023-07-13T15:51:24;26.30;95.30
22974;DHT22;11653;50.848;4.584;2023-07-13T15:53:54;26.40;94.30
22974;DHT22;11653;50.848;4.584;2023-07-13T15:56:21;26.30;93.00
22974;DHT22;11653;50.848;4.584;2023-07-13T15:58:48;26.00;93.30
22974;DHT22;11653;50.848;4.584;2023-07-13T16:01:15;25.70;95.00
22974;DHT22;11653;50.848;4.584;2023-07-13T16:03:40;25.50;94.00
22974;DHT22;11653;50.848;4.584;2023-07-13T16:06:15;25.40;94.80
22974;DHT22;11653;50.848;4.584;2023-07-13T16:08:42;25.40;95.80
22974;DHT22;11653;50.848;4.584;2023-07-13T16:11:36;25.50;96.00
22974;DHT22;11653;50.848;4.584;2023-07-13T16:14:02;25.60;95.20
22974;DHT22;11653;50.848;4.584;2023-07-13T16:16:30;25.50;94.60
22974;DHT22;11653;50.848;4.584;2023-07-13T16:19:01;25.40;95.10
22974;DHT22;11653;50.848;4.584;2023-07-13T16:21:34;25.40;93.90
22974;DHT22;11653;50.848;4.584;2023-07-13T16:24:01;25.30;94.60
22974;DHT22;11653;50.848;4.584;2023-07-13T16:26:29;25.20;94.60